»·PEaware :: EJA814 KCMH-KSTL

EJA814 :: KCMH-KSTL

FLIGHT INFORMATION

Flight Status: Arrived
Operator:
Netjets Aviation
More flights by this operator :: More flights under this callsign
Pilot: Rick S. (2164)
Aircraft: CESSNA 750 CITATION 10
(C750)
More flights by this aircraft type
Origin: KCMH Port Columbus Intl
United States
Destination: KSTL Lambert-St Louis Intl
United States
More flights between these airports :: More routes between these airports
Route: DQN VHP AARCH2
File this flight plan on PilotEdge
Remarks: PBN / A1B2B4B5 DOF / 171125 REG / N948QS EET / KZKC0033 OPR / EJA RMK / TCAS SIMBRIEF
Altitude:
(Current/Filed)
28,000ft
Speed:
(Current/Filed)
470kts
Departed: 26-Nov-17 05:51 AM
Arrived: 26-Nov-17 06:55 AM
Distance/Time
Traveled:
355nm/1:04
Distance/Time
To Go:
Arrived

Flight Plot

Page will automatically refresh every two minutes.


Map Options




Map Legend


Flown Route
Filed Route
Departure Airport
Arrival Airport
Navaid (VOR, NDB)
Fix

Horizontal Profiles

Position Reports

Time Latitude Longitude Heading Altitude Ground
Speed
26-Nov-17 05:49 39.990869 -82.873659 91 819ft 0kts
26-Nov-17 05:50 39.990869 -82.873659 91 819ft 0kts
26-Nov-17 05:51 39.990869 -82.873659 91 819ft 0kts
26-Nov-17 05:52 39.991745 -82.872731 78 819ft 15kts
26-Nov-17 05:53 39.992744 -82.872819 335 819ft 4kts
26-Nov-17 05:54 39.992755 -82.872825 336 819ft 0kts
26-Nov-17 05:55 39.993108 -82.873006 342 819ft 10kts
26-Nov-17 05:56 39.996063 -82.909638 275 1762ft 180kts
26-Nov-17 05:57 39.995317 -82.987300 269 5649ft 220kts
26-Nov-17 05:58 39.995399 -83.073139 275 9051ft 258kts
26-Nov-17 05:59 39.997696 -83.172554 273 11786ft 290kts
26-Nov-17 06:00 39.999491 -83.279138 274 14851ft 297kts
26-Nov-17 06:01 40.001402 -83.387347 275 17825ft 301kts
26-Nov-17 06:02 40.003281 -83.498036 275 20585ft 311kts
26-Nov-17 06:03 40.005126 -83.613272 275 23240ft 323kts
26-Nov-17 06:04 40.006966 -83.732801 275 25945ft 337kts
26-Nov-17 06:05 40.008870 -83.859721 275 27999ft 368kts
26-Nov-17 06:06 40.010928 -84.000119 274 28261ft 388kts
26-Nov-17 06:07 40.012657 -84.138561 274 28271ft 377kts
26-Nov-17 06:08 40.014025 -84.277592 274 28286ft 390kts
26-Nov-17 06:09 40.014841 -84.420994 271 28290ft 402kts
26-Nov-17 06:10 40.000196 -84.567252 266 28287ft 410kts
26-Nov-17 06:11 39.984916 -84.715457 267 28288ft 412kts
26-Nov-17 06:12 39.970855 -84.864216 267 28295ft 415kts
26-Nov-17 06:13 39.956289 -85.011394 267 28290ft 406kts
26-Nov-17 06:14 39.942117 -85.156696 266 28288ft 401kts
26-Nov-17 06:15 39.927458 -85.300475 266 28284ft 400kts
26-Nov-17 06:16 39.912532 -85.444143 266 28285ft 399kts
26-Nov-17 06:17 39.897587 -85.587114 266 28290ft 398kts
26-Nov-17 06:18 39.882768 -85.729979 266 28297ft 398kts
26-Nov-17 06:19 39.867987 -85.873231 266 28300ft 399kts
26-Nov-17 06:20 39.852448 -86.015991 266 28301ft 399kts
26-Nov-17 06:21 39.836827 -86.158820 266 28302ft 399kts
26-Nov-17 06:22 39.820945 -86.302018 266 28301ft 399kts
26-Nov-17 06:23 39.798833 -86.443892 256 28307ft 405kts
26-Nov-17 06:24 39.761070 -86.582312 256 28307ft 406kts
26-Nov-17 06:25 39.726789 -86.722479 257 28311ft 406kts
26-Nov-17 06:26 39.692364 -86.862366 256 28322ft 408kts
26-Nov-17 06:27 39.657140 -87.002204 256 28332ft 408kts
26-Nov-17 06:28 39.622077 -87.142884 256 28338ft 409kts
26-Nov-17 06:29 39.586985 -87.283291 256 28340ft 410kts
26-Nov-17 06:30 39.551059 -87.424187 256 28342ft 411kts
26-Nov-17 06:31 39.515138 -87.564900 256 28345ft 412kts
26-Nov-17 06:32 39.478966 -87.705647 256 28345ft 413kts
26-Nov-17 06:33 39.442790 -87.846964 256 28349ft 413kts
26-Nov-17 06:34 39.406225 -87.987708 255 28348ft 413kts
26-Nov-17 06:35 39.370209 -88.128687 256 28345ft 413kts
26-Nov-17 06:36 39.334687 -88.269767 255 28324ft 398kts
26-Nov-17 06:37 39.299021 -88.402499 255 28350ft 389kts
26-Nov-17 06:38 39.263196 -88.535734 255 28360ft 394kts
26-Nov-17 06:39 39.227421 -88.670011 256 28363ft 395kts
26-Nov-17 06:40 39.191152 -88.803776 255 28365ft 395kts
26-Nov-17 06:41 39.154534 -88.937813 255 27238ft 395kts
26-Nov-17 06:42 39.119842 -89.064239 255 24360ft 355kts
26-Nov-17 06:43 39.087994 -89.180904 256 21833ft 336kts
26-Nov-17 06:44 39.063289 -89.295272 259 19417ft 328kts
26-Nov-17 06:45 39.038389 -89.406683 258 16863ft 322kts
26-Nov-17 06:46 39.013506 -89.516463 258 14347ft 315kts
26-Nov-17 06:47 38.980275 -89.619850 233 11759ft 324kts
26-Nov-17 06:48 38.916057 -89.694742 228 10008ft 295kts
26-Nov-17 06:49 38.859827 -89.766040 230 9720ft 293kts
26-Nov-17 06:50 38.803527 -89.836811 229 8986ft 268kts
26-Nov-17 06:51 38.750246 -89.903994 229 7988ft 269kts
26-Nov-17 06:52 38.698394 -89.971476 234 6983ft 248kts
26-Nov-17 06:53 38.659591 -90.042986 241 6050ft 231kts
26-Nov-17 06:54 38.628212 -90.110819 269 4594ft 227kts
26-Nov-17 06:55 38.652543 -90.175709 305 3657ft 177kts
26-Nov-17 06:56 38.677874 -90.225481 303 2775ft 166kts
26-Nov-17 06:57 38.701537 -90.273540 302 2188ft 143kts
26-Nov-17 06:58 38.722630 -90.317109 303 1543ft 146kts
26-Nov-17 06:59 38.743395 -90.357875 301 609ft 107kts
26-Nov-17 07:00 38.752748 -90.377550 228 608ft 17kts
26-Nov-17 07:01 38.751517 -90.378519 188 608ft 10kts
26-Nov-17 07:02 38.748401 -90.373063 130 608ft 22kts
26-Nov-17 07:03 38.746805 -90.372252 290 608ft 14kts
26-Nov-17 07:04 38.746875 -90.373260 235 608ft 0kts
26-Nov-17 07:05 38.746875 -90.373260 235 608ft 0kts

Navigation Log

Ident Type
Flight plan parsing failed, navigation log unavailable